createdAt,value
2023-01-23T00:04:20.237Z,42.70
2023-01-23T00:06:50.156Z,40.50
2023-01-23T00:09:17.510Z,48.90
2023-01-23T00:11:44.518Z,45.30
2023-01-23T00:14:16.031Z,43.60
2023-01-23T00:16:44.239Z,46.00
2023-01-23T00:19:11.335Z,41.10
2023-01-23T00:21:39.132Z,35.60
2023-01-23T00:24:08.731Z,37.90
2023-01-23T00:26:35.840Z,37.40
2023-01-23T00:29:03.506Z,39.20
2023-01-23T00:31:33.426Z,32.30
2023-01-23T00:34:22.562Z,39.40
2023-01-23T00:36:49.679Z,37.30
2023-01-23T00:39:18.838Z,43.00
2023-01-23T00:41:46.467Z,38.70
2023-01-23T00:44:14.139Z,40.30
2023-01-23T00:46:41.100Z,38.10
2023-01-23T00:49:08.263Z,50.40
2023-01-23T00:51:35.358Z,52.80
2023-01-23T00:54:02.642Z,35.90
2023-01-23T00:56:30.376Z,41.50
2023-01-23T00:58:57.406Z,37.50
2023-01-23T01:01:25.559Z,35.80
2023-01-23T07:33:45.496Z,22.30
2023-01-23T07:36:14.301Z,18.70
2023-01-23T07:38:42.320Z,21.50
2023-01-23T07:41:09.644Z,22.40
2023-01-23T07:43:37.662Z,21.00
2023-01-23T07:46:05.183Z,25.50
2023-01-23T07:48:36.887Z,18.20
2023-01-23T07:51:04.609Z,22.10
2023-01-23T07:53:32.019Z,23.00
2023-01-23T07:55:59.382Z,28.20
2023-01-23T07:58:26.751Z,28.50
2023-01-23T08:00:53.922Z,15.90
2023-01-23T08:03:21.120Z,18.70
2023-01-23T08:05:50.448Z,23.80
2023-01-23T08:08:20.020Z,24.00
2023-01-23T08:10:49.484Z,20.00
2023-01-23T08:13:17.010Z,22.60
2023-01-23T08:15:45.995Z,20.80
2023-01-23T08:18:14.636Z,19.60
2023-01-23T08:20:41.837Z,20.90
2023-01-23T08:23:10.374Z,17.00
2023-01-23T08:25:37.912Z,20.20
2023-01-23T08:28:05.345Z,22.90
2023-01-23T08:30:33.248Z,20.80
2023-01-23T08:33:04.375Z,19.30
2023-01-23T08:35:32.858Z,25.40
2023-01-23T08:38:02.026Z,23.20
2023-01-23T08:40:29.872Z,19.80
2023-01-23T08:42:58.232Z,20.60
2023-01-23T08:45:26.177Z,20.60
2023-01-23T08:47:53.461Z,23.30
2023-01-23T08:50:21.320Z,25.70
2023-01-23T08:52:48.462Z,24.70
2023-01-23T08:55:16.128Z,23.90
2023-01-23T08:57:44.337Z,25.30
2023-01-23T09:00:12.961Z,28.00
2023-01-23T09:02:40.678Z,23.80
2023-01-23T09:05:08.463Z,24.50
2023-01-23T09:07:37.485Z,24.30
2023-01-23T09:12:35.586Z,23.70
2023-01-23T09:15:03.018Z,23.80
2023-01-23T09:17:30.955Z,32.50
2023-01-23T09:20:00.462Z,33.90
2023-01-23T09:22:27.731Z,27.10
2023-01-23T09:24:54.897Z,31.10
2023-01-23T09:27:22.430Z,26.20
2023-01-23T09:29:50.135Z,24.00
2023-01-23T09:32:17.300Z,25.50
2023-01-23T09:34:48.547Z,22.70
2023-01-23T09:39:47.476Z,25.70
2023-01-23T09:42:27.498Z,24.70
2023-01-23T09:45:01.649Z,23.90
2023-01-23T09:47:54.010Z,27.20
2023-01-23T09:50:33.467Z,28.40
2023-01-23T09:53:12.392Z,23.90
2023-01-23T09:55:45.109Z,21.00
2023-01-23T09:58:38.230Z,28.00
2023-01-23T10:01:05.799Z,25.00
2023-01-23T10:03:35.329Z,20.60
2023-01-23T10:06:15.387Z,20.70
2023-01-23T10:09:00.704Z,26.80
2023-01-23T10:11:46.971Z,22.00
2023-01-23T10:14:34.750Z,24.00
2023-01-23T10:17:15.168Z,20.80
2023-01-23T16:39:57.627Z,27.30
2023-01-23T16:44:55.416Z,29.10
2023-01-23T16:47:28.007Z,31.10
2023-01-23T16:49:55.794Z,29.50
2023-01-23T16:52:24.374Z,33.10
2023-01-23T16:54:52.655Z,31.30
2023-01-23T16:57:20.381Z,35.40
2023-01-23T16:59:49.894Z,28.90
2023-01-23T17:02:35.495Z,37.30
2023-01-23T17:05:03.085Z,35.40
2023-01-23T17:07:32.163Z,36.50
2023-01-23T17:10:00.074Z,47.10
2023-01-23T17:12:29.895Z,31.80
2023-01-23T17:14:57.934Z,33.70
2023-01-23T17:17:34.998Z,37.00
2023-01-23T17:20:05.063Z,30.70
2023-01-23T17:22:38.453Z,33.80
2023-01-23T17:25:17.184Z,31.70
2023-01-23T17:27:48.694Z,28.40
2023-01-23T17:30:24.982Z,37.60
2023-01-23T17:32:59.292Z,34.90
2023-01-23T17:35:37.040Z,29.50
2023-01-23T17:38:06.570Z,35.30
2023-01-23T17:40:43.630Z,32.10
2023-01-23T17:43:36.008Z,36.60
2023-01-23T17:46:06.068Z,29.10
2023-01-23T17:48:59.570Z,32.10
2023-01-23T17:51:27.966Z,35.70
2023-01-23T17:53:56.752Z,28.00
2023-01-23T17:56:25.907Z,38.50
2023-01-23T17:58:56.383Z,34.40
2023-01-23T18:01:25.080Z,26.40
2023-01-23T18:03:54.598Z,30.80
2023-01-23T18:06:23.411Z,34.00
2023-01-23T18:08:50.955Z,38.30
2023-01-23T18:11:23.534Z,26.70
2023-01-23T18:14:21.123Z,27.40
2023-01-23T18:16:53.410Z,23.80
2023-01-23T18:19:24.145Z,26.30
2023-01-23T18:21:56.020Z,24.00
2023-01-23T18:24:27.576Z,21.80
2023-01-23T18:27:15.524Z,29.90
2023-01-23T18:29:48.151Z,29.80
2023-01-23T18:32:37.284Z,27.20
2023-01-23T18:35:15.070Z,26.20
2023-01-23T18:38:03.557Z,25.60
2023-01-23T18:40:59.569Z,28.60
2023-01-23T18:43:32.707Z,22.80
2023-01-23T18:46:01.563Z,25.40
2023-01-23T18:48:33.750Z,27.90
2023-01-23T18:51:45.178Z,22.70
2023-01-23T18:54:31.351Z,23.10
2023-01-23T18:57:27.415Z,16.40
2023-01-23T19:00:00.636Z,20.20
2023-01-23T19:02:49.947Z,23.10
2023-01-23T19:05:29.673Z,20.70
